Time;durP1;ratioP1;P1;durP2;ratioP2;P2;SDS_P1;SDS_P2;PMS_P1;PMS_P2;Temp;Humidity;BMP_temperature;BMP_pressure;BME280_temperature;BME280_humidity;BME280_pressure;Samples;Min_cycle;Max_cycle;Signal;HPM_P1;HPM_P2
2022/02/17 00:03:45;;;;;;;0.73;0.73;;;14.20;41.90;;;;;;10518406;28;20234;-70
2022/02/17 00:08:49;;;;;;;0.60;0.60;;;14.20;42.20;;;;;;10516873;28;20232;-70
2022/02/17 00:13:52;;;;;;;0.50;0.50;;;14.20;42.10;;;;;;10517034;28;20234;-70
2022/02/17 00:18:57;;;;;;;0.60;0.60;;;14.20;42.10;;;;;;10514853;28;20352;-70
2022/02/17 00:24:00;;;;;;;0.97;0.50;;;14.20;42.40;;;;;;10516533;28;20224;-73
2022/02/17 00:29:03;;;;;;;0.60;0.60;;;14.20;42.20;;;;;;10511546;28;20606;-73
2022/02/17 00:34:08;;;;;;;0.60;0.60;;;14.30;42.20;;;;;;10516698;28;20611;-73
2022/02/17 00:39:11;;;;;;;0.67;0.67;;;14.30;42.30;;;;;;10513710;28;20747;-73
2022/02/17 00:44:14;;;;;;;0.60;0.60;;;14.40;42.30;;;;;;10511211;28;20220;-73
2022/02/17 00:49:19;;;;;;;0.67;0.67;;;14.40;42.20;;;;;;10517786;28;20228;-73
2022/02/17 00:54:22;;;;;;;0.60;0.60;;;14.50;42.40;;;;;;10511534;28;20604;-73
2022/02/17 00:59:26;;;;;;;0.60;0.60;;;14.50;42.20;;;;;;10511166;28;20227;-73
2022/02/17 01:04:31;;;;;;;0.50;0.50;;;14.50;42.10;;;;;;10516656;28;20769;-73
2022/02/17 01:09:34;;;;;;;0.60;0.60;;;14.60;42.20;;;;;;10515629;28;20434;-73
2022/02/17 01:14:38;;;;;;;0.60;0.60;;;14.60;42.00;;;;;;10515068;28;20216;-73
2022/02/17 01:19:42;;;;;;;0.43;0.43;;;14.60;41.90;;;;;;10513755;28;20243;-73
2022/02/17 01:24:45;;;;;;;0.50;0.50;;;14.70;41.90;;;;;;10513378;28;20235;-74
2022/02/17 01:29:49;;;;;;;0.77;0.60;;;14.80;41.90;;;;;;10513397;28;20237;-73
2022/02/17 01:34:53;;;;;;;0.50;0.50;;;14.80;41.70;;;;;;10513575;28;20227;-73
2022/02/17 01:39:56;;;;;;;1.60;0.50;;;14.80;41.60;;;;;;10513921;28;20238;-73
2022/02/17 01:45:03;;;;;;;0.50;0.50;;;14.90;41.60;;;;;;10507865;28;20222;-73
2022/02/17 01:50:08;;;;;;;0.60;0.60;;;14.90;41.60;;;;;;10511062;28;20234;-73
2022/02/17 01:55:14;;;;;;;0.87;0.50;;;14.90;41.50;;;;;;10512381;28;20740;-73
2022/02/17 02:00:17;;;;;;;0.50;0.50;;;15.00;41.50;;;;;;10512490;28;20742;-73
2022/02/17 02:05:22;;;;;;;0.50;0.50;;;15.00;41.30;;;;;;10513124;28;20219;-73
2022/02/17 02:10:26;;;;;;;2.77;0.60;;;15.00;41.30;;;;;;10511945;28;20243;-73
2022/02/17 02:15:46;;;;;;;0.40;0.40;;;15.00;41.20;;;;;;10514007;28;20227;-73
2022/02/17 02:20:53;;;;;;;0.50;0.50;;;15.10;41.30;;;;;;10508765;28;20227;-73
2022/02/17 02:25:56;;;;;;;0.60;0.60;;;15.10;41.00;;;;;;10511733;28;20709;-73
2022/02/17 02:30:59;;;;;;;0.50;0.50;;;15.10;41.10;;;;;;10509667;28;20313;-73
2022/02/17 02:36:07;;;;;;;0.50;0.50;;;15.10;41.00;;;;;;10511582;28;20227;-72
2022/02/17 02:41:30;;;;;;;0.70;0.70;;;15.10;41.20;;;;;;10510636;28;20226;-73
2022/02/17 02:46:33;;;;;;;0.50;0.50;;;15.10;41.00;;;;;;10513539;28;20223;-73
2022/02/17 02:51:37;;;;;;;0.50;0.50;;;15.10;40.80;;;;;;10508783;28;20220;-73
2022/02/17 02:56:41;;;;;;;0.50;0.50;;;15.10;40.80;;;;;;10510610;28;20224;-73
2022/02/17 03:01:44;;;;;;;0.60;0.60;;;15.10;40.80;;;;;;10513462;28;20231;-73
2022/02/17 03:06:48;;;;;;;0.50;0.50;;;15.20;40.90;;;;;;10511335;28;20235;-73
2022/02/17 03:11:52;;;;;;;0.57;0.57;;;15.20;40.70;;;;;;10511831;28;20223;-73
2022/02/17 03:16:55;;;;;;;0.50;0.50;;;15.20;40.80;;;;;;10512948;28;20230;-73
2022/02/17 03:21:59;;;;;;;0.50;0.50;;;15.30;40.70;;;;;;10511044;28;20231;-73
2022/02/17 03:27:03;;;;;;;0.40;0.40;;;15.30;40.50;;;;;;10510881;28;20230;-72
2022/02/17 03:32:07;;;;;;;0.50;0.50;;;15.30;40.40;;;;;;10510749;28;20224;-69
2022/02/17 03:37:12;;;;;;;0.47;0.47;;;15.30;40.20;;;;;;10516358;28;20227;-70
2022/02/17 03:42:15;;;;;;;0.60;0.60;;;15.30;40.10;;;;;;10517373;28;20626;-70
2022/02/17 03:47:18;;;;;;;0.67;0.50;;;15.40;40.20;;;;;;10519817;28;20239;-69
2022/02/17 03:52:23;;;;;;;0.50;0.50;;;15.40;40.00;;;;;;10517859;28;20609;-69
2022/02/17 03:57:26;;;;;;;0.40;0.40;;;15.40;39.90;;;;;;10519116;28;20227;-69
2022/02/17 04:02:31;;;;;;;0.57;0.57;;;15.50;39.90;;;;;;10519266;28;20259;-70
2022/02/17 04:07:37;;;;;;;0.50;0.50;;;15.50;39.70;;;;;;10518428;28;20223;-69
2022/02/17 04:12:40;;;;;;;0.50;0.50;;;15.50;39.60;;;;;;10517517;28;20606;-69
2022/02/17 04:17:43;;;;;;;0.50;0.50;;;15.50;39.60;;;;;;10516706;28;20223;-69
2022/02/17 04:22:48;;;;;;;0.40;0.40;;;15.50;39.50;;;;;;10517570;28;20231;-69
2022/02/17 04:27:51;;;;;;;0.70;0.70;;;15.50;39.50;;;;;;10515335;28;20723;-70
2022/02/17 04:32:54;;;;;;;0.60;0.60;;;15.50;39.50;;;;;;10518065;28;20715;-70
2022/02/17 04:37:59;;;;;;;0.40;0.40;;;15.50;39.50;;;;;;10513798;28;20227;-69
2022/02/17 04:43:02;;;;;;;0.50;0.50;;;15.50;39.40;;;;;;10514450;28;20232;-70
2022/02/17 04:48:07;;;;;;;0.50;0.50;;;15.60;39.60;;;;;;10516295;28;20227;-70
2022/02/17 04:53:11;;;;;;;0.50;0.50;;;15.60;39.50;;;;;;10512479;28;20611;-70
2022/02/17 04:58:14;;;;;;;0.50;0.50;;;15.60;39.50;;;;;;10514311;28;20224;-69
2022/02/17 05:03:19;;;;;;;0.47;0.47;;;15.60;39.50;;;;;;10517170;28;20223;-70
2022/02/17 05:08:23;;;;;;;0.50;0.50;;;15.60;39.50;;;;;;10513959;28;20236;-69
2022/02/17 05:13:28;;;;;;;1.30;0.50;;;15.60;39.40;;;;;;10513081;28;20250;-69
2022/02/17 05:18:31;;;;;;;1.23;0.50;;;15.60;39.40;;;;;;10513272;28;20239;-69
2022/02/17 05:23:36;;;;;;;0.50;0.50;;;15.60;39.30;;;;;;10513579;28;20232;-70
2022/02/17 05:28:39;;;;;;;0.87;0.60;;;15.60;39.30;;;;;;10513881;28;20838;-70
2022/02/17 05:33:42;;;;;;;0.50;0.50;;;15.60;39.40;;;;;;10510626;28;20234;-69
2022/02/17 05:38:47;;;;;;;0.50;0.50;;;15.60;39.40;;;;;;10512024;28;20443;-69
2022/02/17 05:43:50;;;;;;;1.33;0.60;;;15.60;39.40;;;;;;10510896;28;20566;-69
2022/02/17 05:48:53;;;;;;;0.50;0.50;;;15.50;39.40;;;;;;10512132;28;20219;-69
2022/02/17 05:53:58;;;;;;;0.50;0.50;;;15.60;39.50;;;;;;10507123;28;20223;-70
2022/02/17 05:59:01;;;;;;;0.50;0.50;;;15.60;39.70;;;;;;10509418;28;20283;-70
2022/02/17 06:04:04;;;;;;;0.50;0.50;;;15.60;39.60;;;;;;10510903;28;20224;-69
2022/02/17 06:09:09;;;;;;;0.50;0.50;;;15.60;39.60;;;;;;10511308;28;20226;-72
2022/02/17 06:14:12;;;;;;;0.70;0.70;;;15.60;39.60;;;;;;10510538;28;20234;-69
2022/02/17 06:19:15;;;;;;;0.60;0.60;;;15.60;39.60;;;;;;10507709;28;20581;-73
2022/02/17 06:24:20;;;;;;;0.70;0.70;;;15.60;39.50;;;;;;10509143;28;20230;-73
2022/02/17 06:29:23;;;;;;;0.90;0.90;;;15.60;39.50;;;;;;10511681;28;20230;-73
2022/02/17 06:34:26;;;;;;;0.80;0.80;;;15.60;39.50;;;;;;10511058;28;20227;-69
2022/02/17 06:39:31;;;;;;;1.10;0.73;;;15.60;39.70;;;;;;10509146;28;20227;-69
2022/02/17 06:44:35;;;;;;;0.60;0.60;;;15.60;39.60;;;;;;10508865;28;20466;-71
2022/02/17 06:49:38;;;;;;;0.50;0.50;;;15.60;39.60;;;;;;10506440;28;20594;-71
2022/02/17 06:54:43;;;;;;;1.23;0.90;;;15.60;39.40;;;;;;10509740;28;20794;-71
2022/02/17 06:59:46;;;;;;;0.90;0.90;;;15.60;39.40;;;;;;10508091;28;20224;-71
2022/02/17 07:04:49;;;;;;;0.70;0.70;;;15.70;39.60;;;;;;10509634;28;20588;-71
2022/02/17 07:09:54;;;;;;;0.70;0.70;;;15.70;39.60;;;;;;10513462;28;20357;-71
2022/02/17 07:14:58;;;;;;;0.50;0.50;;;15.70;39.60;;;;;;10515453;28;20223;-71
2022/02/17 07:20:02;;;;;;;0.60;0.60;;;15.70;39.60;;;;;;10517157;28;20230;-71
2022/02/17 07:25:07;;;;;;;0.70;0.70;;;15.70;39.80;;;;;;10516065;28;20639;-71
2022/02/17 07:30:12;;;;;;;0.60;0.60;;;15.60;40.10;;;;;;10511941;28;20628;-70
2022/02/17 07:35:15;;;;;;;0.60;0.60;;;15.60;40.30;;;;;;10513609;28;20246;-71
2022/02/17 07:40:21;;;;;;;2.37;0.60;;;15.60;40.50;;;;;;10512385;28;20259;-71
2022/02/17 07:45:24;;;;;;;0.90;0.60;;;15.50;41.20;;;;;;10514159;28;20230;-71
2022/02/17 07:50:27;;;;;;;0.70;0.70;;;15.30;41.30;;;;;;10515509;28;20227;-73
2022/02/17 07:55:36;;;;;;;2.27;1.00;;;15.20;41.30;;;;;;10516011;28;20223;-71
2022/02/17 08:00:39;;;;;;;2.90;1.20;;;15.00;41.00;;;;;;10514692;28;20234;-71
2022/02/17 08:05:43;;;;;;;2.37;1.03;;;14.70;40.80;;;;;;10515207;28;20285;-71
2022/02/17 08:10:48;;;;;;;2.30;1.20;;;14.50;40.70;;;;;;10515301;28;20223;-69
2022/02/17 08:15:52;;;;;;;3.37;1.20;;;14.40;40.60;;;;;;10516011;28;20228;-69
2022/02/17 08:20:55;;;;;;;3.90;1.43;;;14.30;40.50;;;;;;10515374;28;20595;-69
2022/02/17 08:26:01;;;;;;;3.13;1.50;;;14.20;40.50;;;;;;10508468;28;20227;-69
2022/02/17 08:31:04;;;;;;;2.60;1.33;;;14.10;40.70;;;;;;10510625;28;20220;-69
2022/02/17 08:36:07;;;;;;;3.30;1.30;;;14.20;40.90;;;;;;10516253;28;20703;-72
2022/02/17 08:41:12;;;;;;;2.43;1.20;;;14.10;40.60;;;;;;10518829;28;20238;-73
2022/02/17 08:46:20;;;;;;;2.57;1.13;;;14.20;40.80;;;;;;10522996;28;20231;-73
2022/02/17 08:51:26;;;;;;;3.73;1.30;;;14.20;40.50;;;;;;10519563;28;20230;-73
2022/02/17 08:56:30;;;;;;;4.00;1.43;;;14.20;40.10;;;;;;10520717;28;20255;-73
2022/02/17 09:01:33;;;;;;;2.70;1.27;;;14.20;40.10;;;;;;10519513;28;20732;-73
2022/02/17 09:06:37;;;;;;;4.43;1.40;;;14.30;39.80;;;;;;10515500;28;20227;-73
2022/02/17 09:11:41;;;;;;;4.97;1.40;;;14.40;39.60;;;;;;10521318;28;20233;-73
2022/02/17 09:16:45;;;;;;;3.57;1.40;;;14.50;39.60;;;;;;10521794;28;20231;-73
2022/02/17 09:21:48;;;;;;;2.60;1.00;;;14.60;39.70;;;;;;10518949;28;20235;-73
2022/02/17 09:26:53;;;;;;;3.03;1.30;;;14.60;39.30;;;;;;10520667;28;20242;-73
2022/02/17 09:31:56;;;;;;;2.73;1.20;;;14.70;39.30;;;;;;10519183;28;20220;-73
2022/02/17 09:36:59;;;;;;;3.17;1.10;;;14.70;39.30;;;;;;10520415;28;20227;-73
2022/02/17 09:42:06;;;;;;;4.33;1.90;;;14.80;39.40;;;;;;10520432;28;20233;-73
2022/02/17 09:47:11;;;;;;;2.50;1.33;;;14.80;39.20;;;;;;10519770;28;20237;-73
2022/02/17 09:52:16;;;;;;;3.07;1.20;;;14.80;39.30;;;;;;10520615;28;20223;-73
2022/02/17 09:57:23;;;;;;;3.00;1.63;;;14.80;39.10;;;;;;10515134;28;20227;-73
2022/02/17 10:02:27;;;;;;;4.20;1.50;;;14.80;38.30;;;;;;10520095;28;20569;-73
2022/02/17 10:07:31;;;;;;;3.43;1.30;;;14.80;38.60;;;;;;10519237;28;20246;-73
2022/02/17 10:12:54;;;;;;;3.10;1.33;;;14.90;38.20;;;;;;10520100;28;20584;-73
2022/02/17 10:18:05;;;;;;;4.87;1.70;;;14.90;37.30;;;;;;10518222;28;20255;-73
2022/02/17 10:23:08;;;;;;;4.57;1.60;;;14.90;37.50;;;;;;10517212;28;20235;-73
2022/02/17 10:28:16;;;;;;;5.50;1.70;;;15.00;37.50;;;;;;10515972;28;20238;-73
2022/02/17 10:33:19;;;;;;;5.33;1.70;;;15.00;35.90;;;;;;10519960;28;20227;-75
2022/02/17 10:38:23;;;;;;;4.37;1.90;;;14.90;34.30;;;;;;10516366;28;20232;-73
2022/02/17 10:43:30;;;;;;;4.07;1.73;;;14.80;33.10;;;;;;10519727;28;20231;-73
2022/02/17 10:48:33;;;;;;;4.30;2.00;;;14.80;31.40;;;;;;10524904;28;20223;-73
2022/02/17 10:53:40;;;;;;;5.17;1.80;;;14.80;33.30;;;;;;10526165;28;20721;-73
2022/02/17 10:58:48;;;;;;;6.43;2.10;;;14.80;33.10;;;;;;10526249;28;20231;-73
2022/02/17 11:03:53;;;;;;;5.77;1.97;;;14.70;31.80;;;;;;10524630;28;20227;-73
2022/02/17 11:08:56;;;;;;;6.13;2.40;;;14.70;31.80;;;;;;10525052;28;20276;-73
2022/02/17 11:14:00;;;;;;;8.93;2.10;;;14.70;30.70;;;;;;10525099;28;20215;-74
2022/02/17 11:19:04;;;;;;;5.47;2.10;;;14.70;31.10;;;;;;10524481;28;20226;-72
2022/02/17 11:24:07;;;;;;;6.97;2.33;;;14.70;30.20;;;;;;10526755;28;20224;-72
2022/02/17 11:29:30;;;;;;;7.70;2.00;;;14.60;31.10;;;;;;10521499;28;20230;-72
2022/02/17 11:34:38;;;;;;;5.27;2.53;;;14.60;29.10;;;;;;10516609;28;20227;-71
2022/02/17 11:39:57;;;;;;;6.97;2.70;;;14.50;30.00;;;;;;10523947;28;20231;-72
2022/02/17 11:45:13;;;;;;;6.53;2.20;;;14.50;29.40;;;;;;10525357;28;20237;-73
2022/02/17 11:50:37;;;;;;;6.97;2.20;;;14.50;29.30;;;;;;10523996;28;20238;-72
2022/02/17 11:55:41;;;;;;;7.10;2.60;;;14.50;29.50;;;;;;10524689;28;20596;-72
2022/02/17 12:00:45;;;;;;;8.27;2.53;;;14.50;30.70;;;;;;10524894;28;20231;-72
2022/02/17 12:05:48;;;;;;;7.50;2.20;;;14.40;31.50;;;;;;10520515;28;20245;-72
2022/02/17 12:10:55;;;;;;;8.97;2.97;;;14.40;31.60;;;;;;10526041;28;20228;-72
2022/02/17 12:15:59;;;;;;;7.73;1.87;;;14.40;31.10;;;;;;10520898;28;20603;-72
2022/02/17 12:21:03;;;;;;;4.00;1.60;;;14.20;31.40;;;;;;10518876;28;20236;-72
2022/02/17 12:26:11;;;;;;;5.83;1.90;;;14.00;31.60;;;;;;10524557;28;20232;-72
2022/02/17 12:31:15;;;;;;;5.03;1.80;;;13.90;31.50;;;;;;10521983;28;20220;-72
2022/02/17 12:36:19;;;;;;;6.47;2.00;;;13.70;32.40;;;;;;10523438;28;20231;-72
2022/02/17 12:41:22;;;;;;;7.00;2.13;;;13.70;32.60;;;;;;10524050;28;20235;-72
2022/02/17 12:46:27;;;;;;;4.67;1.93;;;13.70;32.40;;;;;;10521140;28;20232;-72
2022/02/17 12:51:32;;;;;;;7.03;2.10;;;13.80;32.80;;;;;;10523629;28;20226;-72
2022/02/17 12:56:44;;;;;;;9.10;2.10;;;13.90;32.60;;;;;;10520737;28;20652;-72
2022/02/17 13:01:52;;;;;;;7.30;2.23;;;14.10;31.40;;;;;;10519532;28;20684;-72
2022/02/17 13:07:00;;;;;;;7.67;2.50;;;14.30;31.30;;;;;;10521127;28;20529;-72
2022/02/17 13:12:06;;;;;;;4.83;2.13;;;14.50;30.70;;;;;;10518963;28;20216;-72
2022/02/17 13:17:12;;;;;;;6.23;2.30;;;14.70;30.90;;;;;;10500828;28;20232;-72
2022/02/17 13:22:17;;;;;;;4.87;2.20;;;14.80;29.70;;;;;;10495898;28;20587;-72
2022/02/17 13:27:21;;;;;;;7.00;2.33;;;15.10;29.60;;;;;;10513264;28;20783;-72
2022/02/17 13:32:27;;;;;;;5.40;2.43;;;15.30;27.50;;;;;;10513884;28;20772;-72
2022/02/17 13:37:40;;;;;;;5.47;1.97;;;15.40;27.50;;;;;;10516060;28;20228;-75
2022/02/17 13:42:56;;;;;;;4.83;2.10;;;15.60;27.50;;;;;;10513877;28;20580;-75
2022/02/17 13:48:01;;;;;;;5.93;2.20;;;15.60;26.70;;;;;;10515884;28;20214;-75
2022/02/17 13:53:06;;;;;;;5.10;2.40;;;15.60;27.40;;;;;;10519072;28;20220;-75
2022/02/17 13:58:11;;;;;;;6.57;2.37;;;15.60;27.30;;;;;;10518217;28;20217;-75
2022/02/17 14:03:22;;;;;;;5.47;1.90;;;15.50;27.10;;;;;;10512749;28;20227;-75
2022/02/17 14:08:27;;;;;;;7.03;2.47;;;15.50;25.10;;;;;;10516645;28;20706;-75
2022/02/17 14:13:31;;;;;;;6.07;2.30;;;15.40;26.50;;;;;;10516071;28;20594;-74
2022/02/17 14:18:36;;;;;;;5.33;2.50;;;15.30;26.90;;;;;;10515382;28;20238;-74
2022/02/17 14:23:39;;;;;;;5.90;2.53;;;15.20;26.90;;;;;;10517715;28;20232;-73
2022/02/17 14:28:42;;;;;;;5.30;2.30;;;15.20;27.30;;;;;;10514547;28;20232;-73
2022/02/17 14:33:47;;;;;;;5.50;2.27;;;15.10;27.10;;;;;;10517604;28;20747;-73
2022/02/17 14:38:50;;;;;;;6.37;2.47;;;15.00;26.60;;;;;;10513655;28;20231;-73
2022/02/17 14:43:53;;;;;;;6.00;2.70;;;14.90;27.10;;;;;;10517333;28;20231;-73
2022/02/17 14:48:58;;;;;;;7.07;2.20;;;14.80;26.80;;;;;;10519525;28;20234;-73
2022/02/17 14:54:01;;;;;;;6.50;2.63;;;14.80;27.10;;;;;;10518039;28;20223;-74
2022/02/17 14:59:05;;;;;;;7.97;2.17;;;14.80;27.30;;;;;;10518989;28;20696;-71
2022/02/17 15:04:09;;;;;;;4.97;2.00;;;14.70;27.30;;;;;;10515788;28;20228;-75
2022/02/17 15:09:13;;;;;;;6.67;2.33;;;14.60;27.10;;;;;;10517407;28;20235;-72
2022/02/17 15:14:16;;;;;;;6.87;2.60;;;14.60;27.80;;;;;;10515410;28;20219;-72
2022/02/17 15:20:12;;;;;;;8.10;2.50;;;14.60;27.50;;;;;;10515985;28;20231;-71
2022/02/17 15:24:44;;;;;;;8.30;3.03;;;14.50;27.40;;;;;;10515096;28;20227;-71
2022/02/17 15:29:47;;;;;;;8.20;2.47;;;14.50;27.80;;;;;;10515766;28;20224;-71
2022/02/17 15:34:52;;;;;;;6.47;2.60;;;14.50;27.80;;;;;;10519734;28;20774;-71
2022/02/17 15:39:57;;;;;;;7.87;2.90;;;14.40;27.60;;;;;;10520321;28;20252;-72
2022/02/17 15:45:00;;;;;;;7.90;2.70;;;14.40;27.80;;;;;;10524615;28;20219;-71
2022/02/17 15:50:06;;;;;;;6.90;2.40;;;14.50;28.00;;;;;;10523607;28;20212;-71
2022/02/17 15:55:10;;;;;;;8.40;2.80;;;14.50;27.50;;;;;;10525518;28;20226;-71
2022/02/17 16:00:15;;;;;;;7.43;2.60;;;14.50;28.00;;;;;;10522740;28;20243;-72
2022/02/17 16:05:20;;;;;;;8.47;2.97;;;14.50;27.90;;;;;;10521020;28;20231;-72
2022/02/17 16:10:24;;;;;;;8.67;2.87;;;14.50;27.50;;;;;;10521959;28;20238;-71
2022/02/17 16:15:27;;;;;;;8.80;3.10;;;14.50;27.80;;;;;;10519199;28;20226;-71
2022/02/17 16:20:32;;;;;;;8.53;2.93;;;14.50;27.80;;;;;;10522227;28;20233;-70
2022/02/17 16:25:36;;;;;;;7.53;3.23;;;14.50;27.40;;;;;;10520479;28;20224;-70
2022/02/17 16:30:39;;;;;;;5.80;2.43;;;14.40;27.30;;;;;;10521208;28;20746;-70
2022/02/17 16:35:43;;;;;;;8.77;3.10;;;14.40;27.20;;;;;;10520308;28;20662;-70
2022/02/17 16:40:47;;;;;;;7.63;3.70;;;14.30;27.10;;;;;;10523215;28;20226;-70
2022/02/17 16:45:52;;;;;;;9.93;3.20;;;14.30;27.50;;;;;;10523926;28;20230;-71
2022/02/17 16:50:56;;;;;;;9.77;3.53;;;14.30;27.80;;;;;;10520983;28;20230;-71
2022/02/17 16:55:59;;;;;;;14.20;3.77;;;14.20;27.80;;;;;;10521785;28;20231;-71
2022/02/17 17:01:03;;;;;;;12.70;3.90;;;14.10;28.30;;;;;;10522933;28;20215;-71
2022/02/17 17:06:10;;;;;;;9.77;3.70;;;14.00;28.80;;;;;;10523371;28;20243;-71
2022/02/17 17:11:14;;;;;;;9.33;3.37;;;13.90;28.70;;;;;;10520182;28;20224;-70
2022/02/17 17:16:17;;;;;;;10.37;3.20;;;13.80;28.80;;;;;;10520205;28;20227;-70
2022/02/17 17:21:22;;;;;;;11.63;3.37;;;13.70;29.10;;;;;;10519468;28;20223;-72
2022/02/17 17:26:25;;;;;;;7.90;3.27;;;13.60;28.70;;;;;;10517932;28;20236;-72
2022/02/17 17:31:29;;;;;;;9.23;2.70;;;13.50;28.70;;;;;;10519524;28;20227;-72
2022/02/17 17:36:35;;;;;;;6.67;2.10;;;13.50;28.80;;;;;;10512905;28;20219;-72
2022/02/17 17:41:40;;;;;;;8.83;2.67;;;13.50;28.40;;;;;;10515435;28;20219;-72
2022/02/17 17:46:45;;;;;;;9.33;2.70;;;13.50;28.30;;;;;;10519202;28;20235;-72
2022/02/17 17:51:50;;;;;;;8.73;2.47;;;13.50;28.10;;;;;;10517458;28;20220;-72
2022/02/17 17:56:53;;;;;;;9.10;2.77;;;13.50;28.60;;;;;;10520515;28;20296;-72
2022/02/17 18:01:56;;;;;;;6.37;2.73;;;13.40;28.60;;;;;;10517518;28;20314;-72
2022/02/17 18:07:01;;;;;;;8.30;2.93;;;13.30;28.90;;;;;;10517096;28;20227;-72
2022/02/17 18:12:08;;;;;;;6.80;2.40;;;13.10;29.10;;;;;;10514098;28;20223;-71
2022/02/17 18:17:11;;;;;;;9.37;2.50;;;13.00;29.00;;;;;;10518607;28;20228;-72
2022/02/17 18:22:16;;;;;;;7.40;2.47;;;12.90;28.60;;;;;;10519505;28;20264;-72
2022/02/17 18:27:19;;;;;;;11.93;2.53;;;12.80;28.90;;;;;;10511919;28;20228;-71
2022/02/17 18:32:22;;;;;;;5.33;2.53;;;12.80;28.70;;;;;;10514647;28;20232;-71
2022/02/17 18:37:27;;;;;;;7.60;2.97;;;12.80;28.70;;;;;;10518783;28;20224;-72
2022/02/17 18:42:30;;;;;;;9.77;3.13;;;12.80;28.70;;;;;;10518007;28;20230;-72
2022/02/17 18:47:33;;;;;;;10.57;2.73;;;12.80;28.60;;;;;;10515979;28;20246;-71
2022/02/17 18:52:38;;;;;;;9.50;2.93;;;12.80;28.70;;;;;;10514850;28;20226;-72
2022/02/17 18:57:42;;;;;;;10.07;2.90;;;12.80;28.60;;;;;;10518044;28;20219;-71
2022/02/17 19:02:46;;;;;;;9.83;4.87;;;12.80;28.50;;;;;;10517382;28;20226;-72
2022/02/17 19:07:50;;;;;;;10.87;3.20;;;12.70;28.60;;;;;;10520033;28;20678;-72
2022/02/17 19:12:54;;;;;;;10.47;3.23;;;12.70;28.60;;;;;;10528152;28;20711;-72
2022/02/17 19:17:57;;;;;;;9.57;3.60;;;12.60;28.60;;;;;;10525902;28;20266;-72
2022/02/17 19:23:04;;;;;;;8.53;3.00;;;12.60;28.60;;;;;;10524605;28;20241;-72
2022/02/17 19:28:07;;;;;;;10.87;3.90;;;12.50;28.50;;;;;;10521981;28;20267;-72
2022/02/17 19:33:10;;;;;;;8.67;3.10;;;12.50;28.80;;;;;;10524812;28;20614;-72
2022/02/17 19:38:15;;;;;;;8.83;2.93;;;12.50;28.70;;;;;;10522166;28;20219;-72
2022/02/17 19:43:18;;;;;;;10.90;3.20;;;12.50;28.70;;;;;;10524162;28;20609;-72
2022/02/17 19:48:22;;;;;;;12.93;3.67;;;12.50;28.80;;;;;;10521703;28;20234;-72
2022/02/17 19:53:26;;;;;;;10.33;2.77;;;12.40;28.80;;;;;;10524575;28;20223;-71
2022/02/17 19:58:29;;;;;;;10.43;3.30;;;12.40;28.70;;;;;;10523206;28;20667;-72
2022/02/17 20:03:33;;;;;;;10.33;3.00;;;12.40;28.90;;;;;;10522286;28;20230;-72
2022/02/17 20:08:37;;;;;;;10.50;3.40;;;12.40;29.10;;;;;;10518205;28;20281;-72
2022/02/17 20:13:41;;;;;;;11.23;3.20;;;12.30;29.00;;;;;;10521315;28;20212;-72
2022/02/17 20:18:44;;;;;;;12.23;3.33;;;12.40;29.20;;;;;;10521014;28;20224;-72
2022/02/17 20:23:48;;;;;;;12.57;4.27;;;12.30;29.10;;;;;;10521148;28;20267;-72
2022/02/17 20:28:52;;;;;;;11.10;3.33;;;12.30;29.10;;;;;;10519484;28;20238;-72
2022/02/17 20:33:55;;;;;;;9.97;3.17;;;12.30;29.30;;;;;;10522134;28;20563;-72
2022/02/17 20:39:00;;;;;;;11.77;3.40;;;12.30;29.20;;;;;;10519861;28;20236;-71
2022/02/17 20:52:05;;;;;;;11.93;3.60;;;12.20;29.20;;;;;;10519473;28;20327;-71
2022/02/17 20:54:49;;;;;;;12.33;3.40;;;12.20;29.40;;;;;;10518337;28;20249;-72
2022/02/17 20:59:53;;;;;;;10.70;3.60;;;12.10;29.30;;;;;;10518116;28;20220;-72
2022/02/17 21:04:56;;;;;;;12.13;3.77;;;12.10;29.50;;;;;;10519593;28;20633;-72
2022/02/17 21:10:01;;;;;;;11.60;3.30;;;12.00;29.40;;;;;;10517488;28;20234;-71
2022/02/17 21:15:06;;;;;;;12.63;3.47;;;12.00;29.70;;;;;;10521166;28;20227;-72
2022/02/17 21:20:11;;;;;;;10.20;2.90;;;12.00;29.70;;;;;;10518100;28;20598;-72
2022/02/17 21:25:15;;;;;;;10.60;3.17;;;12.00;29.70;;;;;;10517524;28;20223;-71
2022/02/17 21:30:19;;;;;;;8.03;3.00;;;12.00;29.70;;;;;;10517020;28;20614;-71
2022/02/17 21:35:22;;;;;;;10.40;3.10;;;12.00;29.70;;;;;;10520752;28;20228;-72
2022/02/17 21:40:27;;;;;;;9.73;2.90;;;12.00;29.70;;;;;;10519804;28;20231;-72
2022/02/17 21:45:30;;;;;;;8.43;2.43;;;12.00;29.70;;;;;;10518029;28;20602;-72
2022/02/17 21:50:33;;;;;;;11.27;3.03;;;12.10;29.70;;;;;;10512644;28;20590;-71
2022/02/17 21:55:38;;;;;;;9.67;3.13;;;12.10;29.70;;;;;;10513896;28;20219;-72
2022/02/17 22:00:42;;;;;;;10.83;3.20;;;12.00;29.60;;;;;;10510100;28;20227;-71
2022/02/17 22:05:47;;;;;;;9.67;3.00;;;12.10;29.70;;;;;;10512137;28;20223;-71
2022/02/17 22:10:52;;;;;;;12.93;3.37;;;12.10;29.70;;;;;;10511824;28;20250;-71
2022/02/17 22:15:55;;;;;;;11.33;3.40;;;12.10;29.70;;;;;;10511705;28;20656;-72
2022/02/17 22:20:58;;;;;;;12.47;3.43;;;12.20;29.70;;;;;;10513498;28;20219;-72
2022/02/17 22:26:03;;;;;;;11.03;3.10;;;12.20;29.50;;;;;;10515321;28;20686;-72
2022/02/17 22:31:06;;;;;;;8.77;2.97;;;12.20;29.60;;;;;;10511690;28;20222;-72
2022/02/17 22:36:09;;;;;;;19.43;3.83;;;12.20;29.80;;;;;;10515129;28;20703;-72
2022/02/17 22:41:14;;;;;;;13.77;4.23;;;12.20;29.80;;;;;;10512948;28;20242;-71
2022/02/17 22:46:17;;;;;;;10.27;3.80;;;12.10;29.70;;;;;;10514058;28;20822;-71
2022/02/17 22:51:20;;;;;;;15.27;4.27;;;12.10;29.70;;;;;;10514293;28;20219;-71
2022/02/17 22:56:26;;;;;;;11.57;3.37;;;12.10;29.70;;;;;;10513924;28;20734;-72
2022/02/17 23:01:29;;;;;;;12.00;4.03;;;12.10;29.70;;;;;;10515145;28;20230;-71
2022/02/17 23:06:32;;;;;;;11.60;3.77;;;12.10;29.70;;;;;;10513193;28;20231;-71
2022/02/17 23:11:37;;;;;;;9.57;3.20;;;12.10;29.70;;;;;;10514281;28;20730;-72
2022/02/17 23:22:01;;;;;;;13.67;3.47;;;12.10;29.70;;;;;;10519866;28;20222;-72
2022/02/17 23:27:06;;;;;;;11.80;3.40;;;12.00;29.70;;;;;;10518144;28;20223;-72
2022/02/17 23:32:09;;;;;;;10.17;3.20;;;12.00;29.70;;;;;;10519036;28;20238;-71
2022/02/17 23:37:12;;;;;;;13.77;3.23;;;12.00;29.70;;;;;;10519070;28;20219;-72
2022/02/17 23:42:17;;;;;;;13.43;3.50;;;12.00;29.70;;;;;;10519218;28;20223;-72
2022/02/17 23:47:20;;;;;;;12.00;3.30;;;12.00;29.70;;;;;;10517012;28;20339;-71
2022/02/17 23:52:23;;;;;;;9.73;2.93;;;12.00;29.70;;;;;;10521674;28;20228;-71
2022/02/17 23:57:28;;;;;;;12.67;3.10;;;12.00;29.70;;;;;;10526000;28;20223;-72
